createdAt,value
2022-08-01T00:01:18.106Z,3.75
2022-08-01T00:03:47.508Z,2.90
2022-08-01T00:06:15.545Z,4.30
2022-08-01T00:08:43.717Z,3.40
2022-08-01T00:11:11.826Z,3.65
2022-08-01T00:13:39.878Z,3.50
2022-08-01T00:16:07.929Z,4.95
2022-08-01T00:18:36.640Z,2.60
2022-08-01T00:21:06.565Z,3.25
2022-08-01T00:23:34.540Z,2.92
2022-08-01T00:26:02.708Z,4.07
2022-08-01T00:28:30.748Z,2.83
2022-08-01T00:30:58.696Z,4.05
2022-08-01T00:33:26.800Z,3.70
2022-08-01T00:35:54.927Z,4.03
2022-08-01T00:38:24.489Z,4.53
2022-08-01T00:40:54.737Z,3.67
2022-08-01T00:43:22.742Z,4.07
2022-08-01T00:45:50.942Z,3.65
2022-08-01T00:48:18.996Z,3.55
2022-08-01T00:50:47.525Z,3.72
2022-08-01T00:53:18.836Z,3.67
2022-08-01T00:55:49.690Z,3.30
2022-08-01T00:58:17.935Z,3.45
2022-08-01T01:00:53.646Z,5.32
2022-08-01T01:03:49.332Z,4.60
2022-08-01T01:06:29.093Z,4.35
2022-08-01T01:09:14.121Z,3.42
2022-08-01T01:11:51.085Z,3.60
2022-08-01T01:14:29.685Z,3.17
2022-08-01T01:17:00.679Z,3.08
2022-08-01T01:19:35.332Z,3.88
2022-08-01T01:22:19.021Z,3.60
2022-08-01T01:24:59.151Z,3.50
2022-08-01T01:27:44.820Z,4.32
2022-08-01T01:30:14.546Z,3.90
2022-08-01T01:32:47.299Z,4.03
2022-08-01T01:35:19.643Z,3.92
2022-08-01T01:37:49.905Z,3.72
2022-08-01T01:40:19.873Z,3.22
2022-08-01T01:42:49.588Z,3.58
2022-08-01T01:45:20.242Z,4.03
2022-08-01T01:47:48.701Z,4.28
2022-08-01T01:50:17.446Z,4.63
2022-08-01T01:52:48.010Z,3.75
2022-08-01T01:55:18.307Z,3.65
2022-08-01T01:57:47.732Z,3.83
2022-08-01T02:00:17.561Z,3.10
2022-08-01T02:02:48.085Z,3.85
2022-08-01T02:05:17.203Z,3.08
2022-08-01T02:07:46.859Z,3.22
2022-08-01T02:10:19.330Z,4.10
2022-08-01T02:12:51.030Z,3.53
2022-08-01T02:15:21.298Z,3.40
2022-08-01T02:17:53.650Z,3.47
2022-08-01T02:22:53.289Z,2.97
2022-08-01T02:25:25.949Z,3.70
2022-08-01T02:28:01.716Z,3.63
2022-08-01T02:30:34.754Z,3.80
2022-08-01T02:33:15.726Z,4.00
2022-08-01T02:36:29.144Z,3.60
2022-08-01T02:38:39.812Z,3.30
2022-08-01T02:41:10.662Z,4.32
2022-08-01T02:43:40.737Z,4.80
2022-08-01T02:46:13.378Z,3.70
2022-08-01T02:48:45.657Z,4.00
2022-08-01T02:51:17.032Z,3.30
2022-08-01T02:53:46.912Z,6.97
2022-08-01T02:56:16.026Z,4.22
2022-08-01T02:58:45.202Z,5.18
2022-08-01T03:01:15.683Z,4.38
2022-08-01T03:03:45.767Z,3.95
2022-08-01T03:06:15.319Z,3.83
2022-08-01T03:08:44.750Z,4.63
2022-08-01T03:11:14.747Z,4.13
2022-08-01T03:13:44.769Z,4.40
2022-08-01T03:16:15.486Z,5.40
2022-08-01T03:18:47.030Z,4.05
2022-08-01T03:21:16.337Z,4.77
2022-08-01T03:23:45.930Z,5.50
2022-08-01T03:26:14.242Z,4.82
2022-08-01T03:28:44.941Z,4.13
2022-08-01T03:31:16.150Z,5.13
2022-08-01T03:33:45.623Z,4.80
2022-08-01T03:36:16.148Z,6.72
2022-08-01T03:38:47.246Z,5.80
2022-08-01T03:41:22.002Z,4.82
2022-08-01T03:43:57.104Z,4.95
2022-08-01T03:46:32.178Z,5.35
2022-08-01T03:49:08.078Z,5.80
2022-08-01T03:51:36.580Z,6.75
2022-08-01T03:54:06.435Z,6.55
2022-08-01T03:56:35.753Z,6.78
2022-08-01T03:59:05.268Z,7.40
2022-08-01T04:01:34.544Z,8.50
2022-08-01T04:04:06.337Z,7.13
2022-08-01T04:06:34.408Z,6.35
2022-08-01T04:09:02.532Z,6.38
2022-08-01T04:11:30.541Z,7.65
2022-08-01T04:13:58.811Z,6.50
2022-08-01T04:16:26.973Z,8.73
2022-08-01T04:18:54.937Z,7.60
2022-08-01T04:21:28.720Z,7.80
2022-08-01T04:24:00.470Z,7.55
2022-08-01T04:26:30.580Z,7.27
2022-08-01T04:28:59.118Z,7.07
2022-08-01T04:31:30.057Z,7.72
2022-08-01T04:34:04.053Z,9.50
2022-08-01T04:36:35.572Z,8.00
2022-08-01T04:39:06.051Z,8.68
2022-08-01T04:41:36.850Z,7.22
2022-08-01T04:44:05.494Z,7.68
2022-08-01T04:46:35.743Z,8.30
2022-08-01T04:49:04.154Z,9.20
2022-08-01T04:51:33.611Z,9.98
2022-08-01T04:54:02.049Z,7.97
2022-08-01T04:56:30.035Z,9.85
2022-08-01T04:59:15.557Z,7.03
2022-08-01T05:01:51.653Z,7.40
2022-08-01T05:04:19.829Z,8.70
2022-08-01T05:06:49.179Z,9.32
2022-08-01T05:09:17.254Z,7.85
2022-08-01T05:11:45.291Z,8.38
2022-08-01T05:14:13.322Z,8.27
2022-08-01T05:16:42.797Z,9.63
2022-08-01T05:19:11.585Z,8.02
2022-08-01T05:21:39.983Z,8.52
2022-08-01T05:24:09.694Z,8.23
2022-08-01T05:26:38.004Z,7.60
2022-08-01T05:29:06.210Z,7.30
2022-08-01T05:31:35.889Z,7.35
2022-08-01T05:34:04.809Z,6.65
2022-08-01T05:36:32.787Z,7.78
2022-08-01T05:39:01.559Z,7.63
2022-08-01T05:41:30.983Z,8.00
2022-08-01T05:43:59.077Z,7.55
2022-08-01T05:46:27.575Z,7.13
2022-08-01T05:48:56.164Z,7.68
2022-08-01T05:51:24.177Z,6.68
2022-08-01T05:53:52.300Z,8.82
2022-08-01T05:56:20.869Z,7.32
2022-08-01T05:58:50.478Z,9.00
2022-08-01T06:01:18.856Z,7.38
2022-08-01T06:03:47.332Z,8.50
2022-08-01T06:06:15.991Z,6.85
2022-08-01T06:08:43.864Z,7.80
2022-08-01T06:11:14.750Z,9.05
2022-08-01T06:13:48.502Z,8.30
2022-08-01T06:16:23.036Z,7.13
2022-08-01T06:18:54.969Z,6.55
2022-08-01T06:21:24.426Z,7.50
2022-08-01T06:23:52.193Z,5.82
2022-08-01T06:26:20.317Z,5.68
2022-08-01T06:28:48.358Z,6.97
2022-08-01T06:31:16.627Z,7.93
2022-08-01T06:33:46.947Z,6.28
2022-08-01T06:36:15.087Z,7.78
2022-08-01T06:38:46.366Z,6.57
2022-08-01T06:41:23.854Z,7.18
2022-08-01T06:43:57.662Z,6.85
2022-08-01T06:46:30.530Z,7.97
2022-08-01T06:49:11.573Z,6.90
2022-08-01T06:51:40.601Z,7.38
2022-08-01T06:54:20.329Z,6.85
2022-08-01T06:56:51.297Z,7.22
2022-08-01T06:59:34.390Z,6.93
2022-08-01T07:05:16.904Z,6.75
2022-08-01T07:10:27.519Z,5.55
2022-08-01T07:13:09.781Z,5.45
2022-08-01T07:18:32.786Z,4.85
2022-08-01T07:22:34.118Z,5.75
2022-08-01T07:41:52.664Z,4.22
2022-08-01T07:48:13.643Z,3.85
2022-08-01T07:56:33.403Z,4.03
2022-08-01T07:59:05.779Z,4.18
2022-08-01T08:02:10.528Z,3.60
2022-08-01T08:04:53.467Z,4.25
2022-08-01T08:10:17.427Z,5.10
2022-08-01T08:13:10.616Z,4.97
2022-08-01T08:16:15.170Z,4.57
2022-08-01T08:20:09.580Z,6.25
2022-08-01T08:33:41.857Z,5.28
2022-08-01T08:36:12.461Z,4.30
2022-08-01T08:38:41.357Z,5.55
2022-08-01T08:41:10.329Z,4.68
2022-08-01T08:43:38.368Z,4.50
2022-08-01T08:46:09.940Z,3.65
2022-08-01T08:48:39.535Z,4.18
2022-08-01T08:51:09.673Z,3.80
2022-08-01T08:53:44.351Z,3.85
2022-08-01T08:56:15.048Z,3.13
2022-08-01T08:58:45.810Z,3.60
2022-08-01T09:01:14.518Z,3.30
2022-08-01T09:03:42.857Z,3.72
2022-08-01T09:06:11.142Z,3.33
2022-08-01T09:08:40.501Z,3.50
2022-08-01T09:11:08.570Z,3.33
2022-08-01T09:13:36.642Z,4.10
2022-08-01T09:16:19.278Z,3.20
2022-08-01T09:18:53.633Z,3.30
2022-08-01T09:21:25.240Z,2.92
2022-08-01T09:23:59.747Z,4.03
2022-08-01T09:26:31.942Z,3.08
2022-08-01T09:29:01.340Z,3.70
2022-08-01T09:31:38.557Z,3.60
2022-08-01T09:34:08.543Z,3.38
2022-08-01T09:36:54.351Z,3.53
2022-08-01T09:39:25.727Z,2.72
2022-08-01T09:41:55.037Z,2.70
2022-08-01T09:44:44.060Z,2.70
2022-08-01T09:47:15.523Z,2.90
2022-08-01T09:49:50.548Z,3.15
2022-08-01T09:52:25.922Z,2.80
2022-08-01T09:54:57.970Z,3.08
2022-08-01T09:57:26.261Z,2.63
2022-08-01T09:59:58.864Z,3.38
2022-08-01T10:02:31.324Z,3.50
2022-08-01T10:05:09.033Z,3.15
2022-08-01T10:07:43.841Z,3.38
2022-08-01T10:10:16.001Z,4.50
2022-08-01T10:12:45.835Z,2.75
2022-08-01T10:15:18.053Z,3.20
2022-08-01T10:17:57.537Z,3.10
2022-08-01T10:20:30.960Z,3.47
2022-08-01T10:23:06.058Z,2.80
2022-08-01T10:25:46.680Z,2.60
2022-08-01T10:28:21.506Z,2.83
2022-08-01T10:30:53.310Z,3.97
2022-08-01T10:33:52.664Z,2.40
2022-08-01T10:36:12.507Z,2.55
2022-08-01T10:38:42.368Z,2.95
2022-08-01T10:41:16.727Z,3.22
2022-08-01T10:43:46.871Z,2.90
2022-08-01T10:46:15.486Z,2.85
2022-08-01T10:48:52.163Z,2.20
2022-08-01T10:51:22.417Z,2.55
2022-08-01T10:54:11.775Z,2.83
2022-08-01T10:56:46.257Z,1.95
2022-08-01T10:59:50.312Z,2.05
2022-08-01T11:02:11.317Z,2.08
2022-08-01T11:04:56.084Z,1.88
2022-08-01T11:07:37.181Z,2.55
2022-08-01T11:10:14.839Z,2.03
2022-08-01T11:12:45.307Z,2.28
2022-08-01T11:15:30.219Z,2.00
2022-08-01T11:18:01.222Z,1.40
2022-08-01T11:20:32.483Z,1.90
2022-08-01T11:23:18.619Z,1.38
2022-08-01T11:26:10.339Z,1.77
2022-08-01T11:28:50.337Z,1.88
2022-08-01T11:31:30.329Z,2.10
2022-08-01T11:34:05.419Z,1.73
2022-08-01T11:36:57.538Z,1.60
2022-08-01T11:39:21.843Z,1.40
2022-08-01T11:41:50.460Z,1.92
2022-08-01T11:44:26.753Z,2.50
2022-08-01T11:47:08.611Z,1.50
2022-08-01T11:49:51.511Z,1.40
2022-08-01T11:52:21.841Z,1.25
2022-08-01T11:54:52.627Z,1.65
2022-08-01T11:57:23.585Z,1.92
2022-08-01T12:00:02.466Z,1.50
2022-08-01T12:02:40.553Z,1.90
2022-08-01T12:05:12.057Z,1.80
2022-08-01T12:07:42.848Z,1.17
2022-08-01T12:10:12.686Z,2.70
2022-08-01T12:12:46.111Z,2.30
2022-08-01T12:15:15.789Z,1.77
2022-08-01T12:17:58.668Z,1.60
2022-08-01T12:20:31.269Z,1.95
2022-08-01T12:23:01.425Z,1.55
2022-08-01T12:25:29.740Z,1.70
2022-08-01T12:28:02.188Z,1.67
2022-08-01T12:30:36.049Z,1.42
2022-08-01T12:33:06.143Z,2.72
2022-08-01T12:35:34.687Z,1.60
2022-08-01T12:38:05.291Z,1.50
2022-08-01T12:40:34.613Z,1.92
2022-08-01T12:43:04.482Z,2.20
2022-08-01T12:45:36.637Z,2.28
2022-08-01T12:48:10.108Z,1.30
2022-08-01T12:50:39.885Z,1.55
2022-08-01T12:53:08.924Z,1.38
2022-08-01T12:55:58.792Z,1.83
2022-08-01T12:58:33.805Z,2.00
2022-08-01T13:01:08.537Z,2.78
2022-08-01T13:03:36.697Z,1.75
2022-08-01T13:06:13.469Z,2.95
2022-08-01T13:08:41.607Z,1.50
2022-08-01T13:11:15.369Z,1.77
2022-08-01T13:13:48.327Z,1.58
2022-08-01T13:16:30.962Z,2.20
2022-08-01T13:19:07.866Z,2.30
2022-08-01T13:21:53.721Z,1.35
2022-08-01T13:24:27.930Z,1.63
2022-08-01T13:27:01.473Z,1.70
2022-08-01T13:29:34.416Z,2.35
2022-08-01T13:32:27.856Z,1.77
2022-08-01T13:35:03.968Z,1.20
2022-08-01T13:37:32.370Z,1.48
2022-08-01T13:40:00.531Z,1.77
2022-08-01T13:42:30.156Z,2.05
2022-08-01T13:44:58.223Z,1.42
2022-08-01T13:47:31.979Z,2.67
2022-08-01T13:50:03.935Z,2.13
2022-08-01T13:52:32.688Z,2.38
2022-08-01T13:55:00.947Z,3.20
2022-08-01T13:57:36.267Z,1.90
2022-08-01T14:00:07.389Z,1.48
2022-08-01T14:02:41.606Z,1.30
2022-08-01T14:05:09.870Z,2.30
2022-08-01T14:07:38.347Z,1.40
2022-08-01T14:10:20.002Z,1.10
2022-08-01T14:15:36.818Z,1.65
2022-08-01T14:18:06.886Z,1.88
2022-08-01T14:20:35.381Z,1.90
2022-08-01T14:23:03.356Z,1.95
2022-08-01T14:26:00.241Z,1.65
2022-08-01T14:28:19.701Z,2.20
2022-08-01T14:30:47.626Z,2.47
2022-08-01T14:33:17.095Z,2.55
2022-08-01T14:36:01.466Z,2.25
2022-08-01T14:38:34.340Z,2.30
2022-08-01T14:41:04.634Z,1.77
2022-08-01T14:43:34.169Z,2.67
2022-08-01T14:46:04.484Z,3.47
2022-08-01T14:48:34.170Z,1.90
2022-08-01T14:51:03.621Z,2.15
2022-08-01T14:53:34.231Z,1.30
2022-08-01T14:56:04.710Z,1.92
2022-08-01T14:58:32.712Z,1.95
2022-08-01T15:01:01.496Z,1.95
2022-08-01T15:03:29.721Z,2.60
2022-08-01T15:05:59.154Z,1.65
2022-08-01T15:08:27.437Z,2.92
2022-08-01T15:10:55.416Z,2.40
2022-08-01T15:13:23.383Z,3.30
2022-08-01T15:15:51.426Z,2.95
2022-08-01T15:18:19.395Z,2.47
2022-08-01T15:20:47.499Z,2.05
2022-08-01T15:23:16.881Z,2.80
2022-08-01T15:25:44.890Z,2.53
2022-08-01T15:28:13.452Z,2.22
2022-08-01T15:30:41.517Z,3.53
2022-08-01T15:33:09.679Z,2.30
2022-08-01T15:35:37.899Z,2.85
2022-08-01T15:38:05.885Z,2.60
2022-08-01T15:40:35.647Z,1.95
2022-08-01T15:43:04.574Z,3.17
2022-08-01T15:45:48.851Z,3.10
2022-08-01T15:48:17.584Z,2.70
2022-08-01T15:50:45.998Z,2.65
2022-08-01T15:53:14.173Z,2.92
2022-08-01T15:55:46.622Z,2.92
2022-08-01T15:58:21.049Z,3.08
2022-08-01T16:00:49.057Z,3.10
2022-08-01T16:03:17.054Z,2.53
2022-08-01T16:05:45.151Z,2.75
2022-08-01T16:08:13.836Z,3.03
2022-08-01T16:10:43.713Z,3.00
2022-08-01T16:13:12.934Z,2.35
2022-08-01T16:15:41.744Z,3.50
2022-08-01T16:18:13.030Z,1.80
2022-08-01T16:20:45.541Z,2.80
2022-08-01T16:23:14.665Z,3.03
2022-08-01T16:25:44.975Z,2.53
2022-08-01T16:28:14.080Z,4.03
2022-08-01T16:30:48.585Z,2.20
2022-08-01T16:33:45.843Z,2.08
2022-08-01T16:36:17.499Z,2.45
2022-08-01T16:38:45.706Z,2.63
2022-08-01T16:41:19.002Z,2.35
2022-08-01T16:43:53.732Z,2.05
2022-08-01T16:46:22.474Z,1.92
2022-08-01T16:48:50.586Z,1.73
2022-08-01T16:51:19.909Z,2.65
2022-08-01T16:53:47.934Z,1.92
2022-08-01T16:56:17.540Z,1.45
2022-08-01T16:58:45.948Z,1.73
2022-08-01T17:01:58.085Z,2.55
2022-08-01T17:04:02.416Z,2.50
2022-08-01T17:06:30.955Z,2.40
2022-08-01T17:08:59.316Z,1.55
2022-08-01T17:11:28.704Z,2.38
2022-08-01T17:13:56.877Z,1.88
2022-08-01T17:16:24.942Z,1.80
2022-08-01T17:18:53.293Z,1.27
2022-08-01T17:21:21.281Z,1.27
2022-08-01T17:23:49.366Z,1.80
2022-08-01T17:26:17.363Z,2.13
2022-08-01T17:28:46.802Z,1.40
2022-08-01T17:31:14.838Z,2.00
2022-08-01T17:33:45.386Z,1.13
2022-08-01T17:36:15.293Z,1.30
2022-08-01T17:38:43.295Z,1.77
2022-08-01T17:41:11.384Z,1.63
2022-08-01T17:43:39.320Z,1.75
2022-08-01T17:46:09.535Z,1.23
2022-08-01T17:48:37.624Z,2.25
2022-08-01T17:51:06.446Z,1.98
2022-08-01T17:53:34.862Z,1.98
2022-08-01T17:56:05.798Z,1.73
2022-08-01T17:58:51.904Z,1.27
2022-08-01T18:01:26.846Z,2.03
2022-08-01T18:03:57.607Z,1.50
2022-08-01T18:06:27.273Z,1.73
2022-08-01T18:08:59.365Z,2.83
2022-08-01T18:11:27.903Z,3.08
2022-08-01T18:13:57.011Z,2.30
2022-08-01T18:16:29.092Z,2.28
2022-08-01T18:18:57.750Z,3.10
2022-08-01T18:21:25.895Z,2.00
2022-08-01T18:23:53.915Z,2.25
2022-08-01T18:26:22.432Z,2.70
2022-08-01T18:28:50.971Z,2.05
2022-08-01T18:31:20.771Z,2.08
2022-08-01T18:33:50.296Z,2.45
2022-08-01T18:36:33.201Z,1.85
2022-08-01T18:39:04.547Z,2.38
2022-08-01T18:41:33.114Z,2.67
2022-08-01T18:44:05.560Z,1.98
2022-08-01T18:46:37.617Z,1.83
2022-08-01T18:49:10.222Z,1.90
2022-08-01T18:51:43.737Z,1.58
2022-08-01T18:54:15.495Z,2.58
2022-08-01T18:56:44.445Z,2.38
2022-08-01T18:59:13.281Z,2.47
2022-08-01T19:01:41.459Z,2.33
2022-08-01T19:04:11.103Z,2.53
2022-08-01T19:06:40.363Z,1.92
2022-08-01T19:09:09.248Z,1.90
2022-08-01T19:11:38.229Z,2.28
2022-08-01T19:14:06.497Z,2.22
2022-08-01T19:16:35.095Z,2.67
2022-08-01T19:19:07.054Z,4.03
2022-08-01T19:24:22.965Z,1.98
2022-08-01T19:26:53.517Z,2.60
2022-08-01T19:29:23.866Z,2.35
2022-08-01T19:32:01.364Z,2.78
2022-08-01T19:34:31.058Z,2.17
2022-08-01T19:37:00.480Z,4.03
2022-08-01T19:39:28.873Z,2.35
2022-08-01T19:41:59.482Z,3.00
2022-08-01T19:44:29.685Z,2.50
2022-08-01T19:46:57.809Z,1.88
2022-08-01T19:49:26.284Z,2.97
2022-08-01T19:51:56.890Z,2.33
2022-08-01T19:54:30.209Z,3.05
2022-08-01T19:57:01.818Z,2.88
2022-08-01T19:59:33.192Z,3.90
2022-08-01T20:02:01.440Z,2.60
2022-08-01T20:04:29.945Z,3.13
2022-08-01T20:06:58.089Z,2.40
2022-08-01T20:09:28.698Z,2.72
2022-08-01T20:11:56.922Z,2.35
2022-08-01T20:14:26.605Z,2.40
2022-08-01T20:16:56.343Z,3.47
2022-08-01T20:19:25.722Z,2.20
2022-08-01T20:22:02.629Z,3.25
2022-08-01T20:24:40.948Z,4.13
2022-08-01T20:27:11.355Z,3.13
2022-08-01T20:29:40.251Z,3.10
2022-08-01T20:32:09.532Z,3.25
2022-08-01T20:34:40.670Z,2.90
2022-08-01T20:37:13.140Z,2.72
2022-08-01T20:39:45.101Z,2.25
2022-08-01T20:42:14.654Z,1.95
2022-08-01T20:44:43.373Z,2.88
2022-08-01T20:47:11.961Z,2.67
2022-08-01T20:49:43.385Z,3.63
2022-08-01T20:52:13.625Z,3.13
2022-08-01T20:54:45.220Z,2.60
2022-08-01T20:57:20.463Z,3.88
2022-08-01T20:59:56.847Z,2.75
2022-08-01T21:02:42.578Z,3.10
2022-08-01T21:05:12.141Z,2.90
2022-08-01T21:07:44.242Z,3.30
2022-08-01T21:10:16.125Z,2.35
2022-08-01T21:12:47.394Z,3.05
2022-08-01T21:15:25.671Z,3.67
2022-08-01T21:17:58.992Z,4.30
2022-08-01T21:20:29.846Z,3.45
2022-08-01T21:23:09.769Z,2.70
2022-08-01T21:25:39.334Z,3.10
2022-08-01T21:28:07.428Z,2.85
2022-08-01T21:30:37.119Z,3.75
2022-08-01T21:33:06.281Z,2.78
2022-08-01T21:35:35.832Z,2.92
2022-08-01T21:38:04.583Z,3.70
2022-08-01T21:40:34.287Z,3.80
2022-08-01T21:43:04.822Z,3.80
2022-08-01T21:45:32.894Z,3.35
2022-08-01T21:48:02.068Z,2.85
2022-08-01T21:50:40.141Z,3.22
2022-08-01T21:53:17.335Z,2.95
2022-08-01T21:56:15.080Z,3.17
2022-08-01T21:58:52.777Z,4.03
2022-08-01T22:01:28.282Z,3.78
2022-08-01T22:04:00.606Z,3.75
2022-08-01T22:09:01.367Z,3.90
2022-08-01T22:11:31.360Z,3.67
2022-08-01T22:14:04.966Z,3.88
2022-08-01T22:16:34.638Z,4.13
2022-08-01T22:19:04.334Z,4.35
2022-08-01T22:21:34.200Z,3.13
2022-08-01T22:24:05.099Z,4.40
2022-08-01T22:26:34.622Z,4.88
2022-08-01T22:29:06.052Z,3.47
2022-08-01T22:31:37.942Z,3.40
2022-08-01T22:34:07.004Z,3.83
2022-08-01T22:36:35.022Z,3.53
2022-08-01T22:39:03.087Z,2.90
2022-08-01T22:42:01.373Z,3.47
2022-08-01T22:44:30.592Z,3.80
2022-08-01T22:47:04.377Z,2.75
2022-08-01T22:49:36.138Z,5.05
2022-08-01T22:52:12.958Z,4.25
2022-08-01T22:54:42.713Z,3.45
2022-08-01T22:57:15.650Z,2.92
2022-08-01T22:59:49.782Z,5.65
2022-08-01T23:02:19.758Z,4.18
2022-08-01T23:04:49.690Z,3.30
2022-08-01T23:07:21.379Z,4.47
2022-08-01T23:09:54.180Z,4.25
2022-08-01T23:12:24.407Z,3.58
2022-08-01T23:14:55.635Z,3.60
2022-08-01T23:17:26.286Z,6.47
2022-08-01T23:19:58.460Z,3.75
2022-08-01T23:22:29.484Z,3.15
2022-08-01T23:25:05.180Z,3.47
2022-08-01T23:27:51.435Z,3.50
2022-08-01T23:30:27.634Z,3.38
2022-08-01T23:32:55.798Z,3.75
2022-08-01T23:35:24.288Z,3.60
2022-08-01T23:37:53.643Z,4.15
2022-08-01T23:40:24.721Z,3.78
2022-08-01T23:42:54.669Z,4.22
2022-08-01T23:45:23.271Z,3.75
2022-08-01T23:47:53.395Z,3.53
2022-08-01T23:50:22.525Z,4.05
2022-08-01T23:52:51.446Z,3.88
2022-08-01T23:58:01.005Z,4.20
